createdAt,value
2023-05-08T00:02:04.731Z,9.40
2023-05-08T00:04:32.767Z,9.46
2023-05-08T00:07:00.523Z,9.36
2023-05-08T00:09:28.173Z,9.30
2023-05-08T00:11:56.115Z,9.26
2023-05-08T00:14:23.843Z,9.29
2023-05-08T00:16:51.599Z,9.34
2023-05-08T00:19:19.799Z,9.48
2023-05-08T00:21:47.417Z,9.48
2023-05-08T00:24:15.222Z,9.54
2023-05-08T00:26:43.388Z,9.12
2023-05-08T00:29:11.269Z,9.05
2023-05-08T00:31:38.972Z,8.98
2023-05-08T00:34:06.947Z,8.99
2023-05-08T00:36:34.531Z,8.79
2023-05-08T00:39:02.194Z,8.89
2023-05-08T00:41:30.321Z,9.01
2023-05-08T00:43:58.291Z,9.09
2023-05-08T00:46:26.162Z,9.34
2023-05-08T00:48:54.253Z,9.07
2023-05-08T00:51:22.032Z,9.00
2023-05-08T00:53:49.681Z,9.11
2023-05-08T00:56:18.843Z,9.01
2023-05-08T00:58:46.887Z,9.05
2023-05-08T01:01:15.169Z,9.00
2023-05-08T01:03:43.555Z,8.93
2023-05-08T01:06:11.321Z,9.24
2023-05-08T01:08:39.285Z,9.14
2023-05-08T01:11:19.907Z,9.13
2023-05-08T01:14:24.792Z,9.18
2023-05-08T01:17:21.735Z,9.28
2023-05-08T01:20:03.499Z,9.30
2023-05-08T01:22:49.771Z,8.98
2023-05-08T01:25:41.828Z,9.02
2023-05-08T01:28:26.357Z,8.70
2023-05-08T01:31:18.336Z,8.66
2023-05-08T01:33:59.815Z,8.50
2023-05-08T01:36:37.583Z,8.37
2023-05-08T01:39:17.824Z,8.33
2023-05-08T01:41:50.686Z,8.48
2023-05-08T01:44:21.700Z,8.44
2023-05-08T01:46:50.514Z,8.50
2023-05-08T01:49:28.489Z,8.45
2023-05-08T01:51:59.501Z,8.55
2023-05-08T01:54:35.361Z,8.81
2023-05-08T01:57:03.696Z,8.73
2023-05-08T01:59:33.741Z,8.36
2023-05-08T02:02:02.261Z,8.28
2023-05-08T02:04:30.841Z,8.37
2023-05-08T02:06:58.912Z,8.35
2023-05-08T02:09:28.649Z,8.30
2023-05-08T02:11:57.123Z,8.56
2023-05-08T02:14:26.825Z,8.28
2023-05-08T02:16:55.792Z,8.48
2023-05-08T02:19:25.251Z,8.37
2023-05-08T02:21:55.350Z,8.29
2023-05-08T02:24:24.147Z,8.30
2023-05-08T02:26:53.223Z,8.26
2023-05-08T02:29:22.485Z,8.39
2023-05-08T02:32:05.039Z,8.17
2023-05-08T02:35:02.000Z,8.14
2023-05-08T02:37:32.652Z,8.18
2023-05-08T02:40:01.498Z,8.36
2023-05-08T02:42:30.655Z,8.42
2023-05-08T02:44:59.551Z,8.61
2023-05-08T02:47:37.269Z,8.60
2023-05-08T02:50:15.244Z,8.68
2023-05-08T02:52:52.878Z,8.50
2023-05-08T02:55:27.448Z,8.64
2023-05-08T02:58:44.710Z,8.79
2023-05-08T03:01:41.242Z,8.80
2023-05-08T03:04:11.408Z,8.61
2023-05-08T03:06:42.876Z,8.49
2023-05-08T03:09:12.404Z,8.71
2023-05-08T03:11:42.529Z,8.92
2023-05-08T03:14:12.737Z,8.93
2023-05-08T03:16:42.050Z,8.70
2023-05-08T03:19:45.144Z,8.71
2023-05-08T03:22:17.416Z,8.73
2023-05-08T03:24:48.541Z,8.77
2023-05-08T03:27:17.988Z,9.03
2023-05-08T03:29:46.373Z,8.84
2023-05-08T03:32:14.678Z,8.84
2023-05-08T03:34:46.690Z,8.90
2023-05-08T03:37:14.997Z,9.09
2023-05-08T03:39:46.429Z,9.05
2023-05-08T03:42:14.456Z,9.11
2023-05-08T03:44:43.058Z,9.36
2023-05-08T03:47:11.484Z,9.47
2023-05-08T03:49:42.617Z,9.20
2023-05-08T03:52:12.269Z,9.09
2023-05-08T03:54:41.169Z,9.13
2023-05-08T03:57:09.558Z,9.46
2023-05-08T04:00:02.359Z,9.36
2023-05-08T04:03:07.913Z,9.43
2023-05-08T04:05:39.888Z,9.49
2023-05-08T04:08:27.188Z,9.56
2023-05-08T04:11:04.491Z,9.61
2023-05-08T04:13:37.327Z,9.79
2023-05-08T04:16:22.210Z,9.67
2023-05-08T04:19:01.964Z,9.74
2023-05-08T04:21:34.263Z,9.80
2023-05-08T04:24:03.440Z,9.81
2023-05-08T04:26:31.909Z,9.92
2023-05-08T04:29:20.452Z,10.08
2023-05-08T04:31:50.693Z,10.25
2023-05-08T04:34:19.485Z,10.11
2023-05-08T04:36:47.499Z,10.19
2023-05-08T04:39:15.757Z,10.30
2023-05-08T04:41:44.603Z,10.27
2023-05-08T04:44:14.574Z,10.40
2023-05-08T04:46:45.803Z,10.51
2023-05-08T04:49:14.618Z,10.38
2023-05-08T04:51:44.652Z,10.40
2023-05-08T04:54:12.713Z,10.57
2023-05-08T04:56:44.930Z,10.41
2023-05-08T04:59:14.200Z,10.49
2023-05-08T05:01:51.615Z,10.64
2023-05-08T05:04:25.965Z,10.53
2023-05-08T05:06:55.771Z,10.65
2023-05-08T05:09:23.690Z,10.57
2023-05-08T05:11:51.500Z,10.57
2023-05-08T05:14:20.280Z,10.71
2023-05-08T05:16:48.754Z,10.69
2023-05-08T05:19:19.554Z,10.92
2023-05-08T05:21:47.428Z,10.38
2023-05-08T05:24:15.719Z,10.46
2023-05-08T05:26:43.462Z,10.39
2023-05-08T05:29:11.588Z,10.51
2023-05-08T05:31:39.550Z,10.71
2023-05-08T05:34:07.570Z,10.54
2023-05-08T05:36:36.154Z,10.34
2023-05-08T05:39:03.889Z,10.74
2023-05-08T05:41:31.717Z,10.62
2023-05-08T05:43:59.755Z,10.59
2023-05-08T05:46:27.670Z,10.72
2023-05-08T05:48:55.400Z,10.86
2023-05-08T05:51:23.611Z,10.86
2023-05-08T05:53:51.267Z,11.08
2023-05-08T05:56:19.213Z,11.02
2023-05-08T05:58:47.562Z,11.42
2023-05-08T06:01:15.478Z,11.19
2023-05-08T06:03:44.230Z,11.24
2023-05-08T06:06:11.903Z,11.12
2023-05-08T06:08:39.534Z,11.16
2023-05-08T06:11:07.897Z,11.33
2023-05-08T06:13:35.577Z,11.65
2023-05-08T06:16:05.203Z,11.71
2023-05-08T06:18:33.100Z,11.78
2023-05-08T06:21:00.891Z,11.58
2023-05-08T06:23:28.567Z,11.47
2023-05-08T06:25:56.522Z,11.92
2023-05-08T06:28:24.314Z,11.86
2023-05-08T06:30:52.548Z,11.99
2023-05-08T06:33:20.492Z,12.37
2023-05-08T06:35:48.718Z,12.02
2023-05-08T06:38:16.612Z,12.36
2023-05-08T06:40:45.728Z,12.82
2023-05-08T06:43:13.637Z,12.60
2023-05-08T06:45:41.293Z,12.77
2023-05-08T06:48:09.334Z,12.79
2023-05-08T06:50:40.143Z,13.05
2023-05-08T06:53:07.901Z,13.13
2023-05-08T06:55:35.997Z,13.28
2023-05-08T06:58:03.653Z,13.73
2023-05-08T07:00:31.458Z,13.84
2023-05-08T07:02:59.554Z,13.64
2023-05-08T07:05:27.343Z,13.55
2023-05-08T07:07:55.115Z,13.50
2023-05-08T07:10:23.098Z,13.65
2023-05-08T07:12:50.812Z,13.74
2023-05-08T07:17:52.598Z,14.01
2023-05-08T07:20:20.301Z,13.99
2023-05-08T07:22:48.115Z,13.93
2023-05-08T07:25:16.779Z,14.07
2023-05-08T07:27:44.806Z,14.24
2023-05-08T07:30:12.644Z,14.20
2023-05-08T07:32:40.652Z,14.35
2023-05-08T07:35:10.450Z,14.55
2023-05-08T07:37:39.765Z,14.38
2023-05-08T07:40:08.064Z,14.45
2023-05-08T07:42:42.414Z,14.48
2023-05-08T07:45:11.561Z,14.45
2023-05-08T07:47:48.752Z,14.52
2023-05-08T07:50:16.830Z,14.50
2023-05-08T07:52:49.794Z,14.66
2023-05-08T07:55:18.995Z,14.61
2023-05-08T07:57:46.695Z,14.77
2023-05-08T08:00:15.365Z,14.64
2023-05-08T08:02:44.996Z,15.11
2023-05-08T08:05:13.146Z,15.10
2023-05-08T08:07:41.182Z,14.45
2023-05-08T08:10:09.311Z,14.92
2023-05-08T08:12:37.229Z,15.19
2023-05-08T08:15:05.391Z,15.18
2023-05-08T08:17:33.327Z,15.22
2023-05-08T08:20:01.044Z,15.39
2023-05-08T08:22:28.847Z,15.44
2023-05-08T08:24:56.941Z,15.89
2023-05-08T08:27:24.531Z,16.02
2023-05-08T08:29:58.579Z,15.63
2023-05-08T08:32:32.846Z,15.77
2023-05-08T08:35:00.881Z,15.60
2023-05-08T08:37:28.504Z,15.75
2023-05-08T08:39:56.574Z,15.75
2023-05-08T08:42:24.491Z,16.12
2023-05-08T08:44:52.770Z,16.34
2023-05-08T08:47:23.047Z,16.21
2023-05-08T08:49:51.348Z,16.41
2023-05-08T08:52:47.548Z,15.80
2023-05-08T08:55:18.276Z,16.32
2023-05-08T08:57:58.530Z,16.70
2023-05-08T09:00:28.772Z,16.99
2023-05-08T09:02:56.487Z,16.96
2023-05-08T09:05:24.282Z,16.94
2023-05-08T09:07:54.659Z,17.05
2023-05-08T09:10:24.377Z,17.18
2023-05-08T09:12:52.687Z,17.18
2023-05-08T09:15:20.374Z,17.24
2023-05-08T09:17:48.104Z,16.96
2023-05-08T09:20:16.305Z,17.21
2023-05-08T09:22:44.351Z,16.98
2023-05-08T09:25:12.338Z,17.44
2023-05-08T09:27:40.604Z,17.64
2023-05-08T09:30:09.692Z,17.87
2023-05-08T09:32:40.619Z,18.11
2023-05-08T09:35:10.383Z,17.92
2023-05-08T09:37:39.451Z,18.19
2023-05-08T09:40:27.274Z,18.20
2023-05-08T09:42:55.170Z,17.92
2023-05-08T09:45:30.740Z,18.23
2023-05-08T09:47:58.872Z,18.23
2023-05-08T09:50:26.634Z,18.70
2023-05-08T09:52:54.380Z,18.78
2023-05-08T09:55:22.383Z,19.17
2023-05-08T09:57:58.644Z,19.05
2023-05-08T10:00:29.217Z,19.21
2023-05-08T10:03:02.119Z,18.70
2023-05-08T10:05:34.993Z,19.02
2023-05-08T10:08:23.128Z,19.41
2023-05-08T10:10:51.251Z,20.12
2023-05-08T10:13:19.294Z,20.20
2023-05-08T10:15:52.778Z,20.51
2023-05-08T10:18:22.378Z,20.54
2023-05-08T10:20:50.544Z,20.85
2023-05-08T10:23:18.500Z,19.86
2023-05-08T10:25:48.293Z,20.21
2023-05-08T10:28:35.902Z,20.52
2023-05-08T10:31:04.173Z,20.43
2023-05-08T10:33:32.075Z,20.44
2023-05-08T10:36:00.379Z,20.57
2023-05-08T10:38:30.752Z,20.23
2023-05-08T10:41:02.286Z,20.73
2023-05-08T10:43:30.513Z,21.07
2023-05-08T10:45:58.854Z,20.95
2023-05-08T10:48:36.591Z,20.71
2023-05-08T10:51:35.638Z,20.78
2023-05-08T10:54:13.660Z,20.85
2023-05-08T10:56:41.517Z,20.78
2023-05-08T10:59:17.922Z,20.99
2023-05-08T11:01:49.873Z,20.94
2023-05-08T11:04:22.489Z,21.28
2023-05-08T11:06:50.901Z,21.32
2023-05-08T11:09:23.062Z,21.47
2023-05-08T11:12:07.257Z,21.68
2023-05-08T11:14:37.261Z,21.29
2023-05-08T11:17:06.004Z,21.48
2023-05-08T11:19:34.152Z,21.60
2023-05-08T11:22:10.868Z,21.90
2023-05-08T11:24:55.056Z,22.25
2023-05-08T11:27:50.506Z,22.63
2023-05-08T11:30:25.407Z,22.67
2023-05-08T11:33:16.591Z,22.18
2023-05-08T11:35:53.941Z,22.45
2023-05-08T11:38:27.779Z,23.05
2023-05-08T11:41:00.897Z,22.79
2023-05-08T11:43:34.275Z,22.77
2023-05-08T11:46:07.457Z,22.47
2023-05-08T11:48:35.706Z,22.72
2023-05-08T11:51:03.776Z,23.09
2023-05-08T11:53:31.753Z,23.09
2023-05-08T11:55:59.861Z,23.40
2023-05-08T11:58:28.194Z,23.24
2023-05-08T12:00:56.004Z,22.59
2023-05-08T12:03:24.937Z,22.59
2023-05-08T12:05:56.300Z,22.71
2023-05-08T12:08:26.263Z,22.48
2023-05-08T12:10:57.079Z,22.88
2023-05-08T12:13:27.264Z,23.42
2023-05-08T12:16:00.475Z,23.69
2023-05-08T12:18:28.792Z,23.76
2023-05-08T12:21:01.614Z,23.64
2023-05-08T12:23:30.052Z,23.33
2023-05-08T12:26:00.930Z,23.06
2023-05-08T12:28:30.400Z,23.40
2023-05-08T12:30:58.454Z,23.04
2023-05-08T12:33:26.279Z,23.53
2023-05-08T12:35:56.625Z,23.40
2023-05-08T12:38:27.790Z,23.16
2023-05-08T12:40:55.976Z,22.50
2023-05-08T12:43:36.964Z,23.43
2023-05-08T12:46:11.152Z,23.45
2023-05-08T12:48:39.360Z,23.55
2023-05-08T12:51:07.297Z,23.54
2023-05-08T12:53:34.978Z,23.63
2023-05-08T12:56:03.863Z,22.93
2023-05-08T12:58:33.425Z,23.28
2023-05-08T13:01:11.638Z,23.21
2023-05-08T13:03:40.853Z,23.16
2023-05-08T13:06:19.728Z,24.24
2023-05-08T13:08:53.418Z,24.10
2023-05-08T13:11:33.452Z,23.79
2023-05-08T13:14:01.437Z,24.04
2023-05-08T13:16:29.632Z,23.24
2023-05-08T13:18:57.338Z,23.70
2023-05-08T13:21:27.336Z,23.80
2023-05-08T13:23:55.404Z,24.44
2023-05-08T13:26:25.786Z,24.64
2023-05-08T13:28:56.216Z,24.70
2023-05-08T13:31:24.411Z,24.22
2023-05-08T13:33:52.198Z,23.69
2023-05-08T13:36:20.395Z,24.13
2023-05-08T13:38:48.126Z,24.08
2023-05-08T13:41:15.757Z,25.12
2023-05-08T13:43:44.089Z,24.03
2023-05-08T13:48:39.123Z,23.66
2023-05-08T13:51:07.041Z,23.65
2023-05-08T13:53:34.748Z,23.94
2023-05-08T13:56:02.319Z,24.23
2023-05-08T13:58:30.209Z,24.09
2023-05-08T14:00:57.858Z,23.57
2023-05-08T14:03:25.979Z,24.05
2023-05-08T14:05:53.869Z,24.10
2023-05-08T14:08:21.560Z,24.62
2023-05-08T14:10:49.491Z,24.37
2023-05-08T14:13:17.666Z,24.07
2023-05-08T14:15:45.612Z,24.72
2023-05-08T14:18:13.845Z,24.26
2023-05-08T14:20:42.086Z,24.88
2023-05-08T14:23:10.764Z,24.62
2023-05-08T14:25:38.718Z,23.59
2023-05-08T14:28:06.375Z,24.02
2023-05-08T14:30:33.982Z,24.39
2023-05-08T14:33:02.378Z,24.52
2023-05-08T14:35:30.097Z,24.47
2023-05-08T14:37:57.903Z,23.68
2023-05-08T14:40:25.773Z,22.72
2023-05-08T14:42:53.554Z,21.98
2023-05-08T14:45:21.254Z,22.03
2023-05-08T14:47:49.342Z,21.79
2023-05-08T14:50:17.564Z,22.52
2023-05-08T14:52:45.692Z,23.24
2023-05-08T14:55:14.065Z,23.48
2023-05-08T14:57:42.284Z,23.70
2023-05-08T15:00:10.834Z,23.89
2023-05-08T15:02:39.108Z,23.41
2023-05-08T15:05:10.913Z,22.83
2023-05-08T15:07:45.706Z,22.14
2023-05-08T15:10:13.481Z,21.93
2023-05-08T15:12:41.367Z,22.01
2023-05-08T15:15:09.624Z,21.52
2023-05-08T15:17:37.324Z,21.30
2023-05-08T15:20:05.996Z,21.00
2023-05-08T15:22:34.258Z,20.82
2023-05-08T15:25:01.975Z,21.36
2023-05-08T15:27:30.034Z,21.70
2023-05-08T15:29:58.279Z,22.05
2023-05-08T15:32:26.098Z,21.86
2023-05-08T15:34:54.363Z,21.99
2023-05-08T15:37:22.326Z,21.79
2023-05-08T15:39:49.965Z,20.99
2023-05-08T15:42:17.581Z,21.09
2023-05-08T15:47:16.612Z,20.68
2023-05-08T15:49:44.507Z,20.77
2023-05-08T15:52:12.347Z,20.65
2023-05-08T15:54:39.989Z,20.83
2023-05-08T15:57:07.669Z,20.50
2023-05-08T15:59:35.756Z,19.43
2023-05-08T16:02:04.281Z,19.25
2023-05-08T16:04:32.512Z,19.05
2023-05-08T16:07:00.422Z,19.40
2023-05-08T16:09:27.999Z,18.68
2023-05-08T16:11:56.132Z,18.83
2023-05-08T16:14:29.126Z,18.65
2023-05-08T16:16:57.017Z,18.58
2023-05-08T16:19:24.685Z,18.51
2023-05-08T16:21:52.457Z,18.24
2023-05-08T16:24:20.504Z,18.19
2023-05-08T16:26:48.139Z,17.78
2023-05-08T16:29:16.463Z,17.67
2023-05-08T16:31:47.387Z,17.78
2023-05-08T16:34:15.325Z,17.65
2023-05-08T16:36:43.102Z,17.44
2023-05-08T16:39:12.730Z,17.57
2023-05-08T16:41:40.494Z,17.21
2023-05-08T16:44:08.159Z,17.05
2023-05-08T16:46:36.080Z,16.79
2023-05-08T16:49:03.693Z,16.52
2023-05-08T16:51:31.310Z,16.77
2023-05-08T16:53:59.603Z,16.49
2023-05-08T16:56:30.581Z,16.33
2023-05-08T16:58:58.628Z,16.39
2023-05-08T17:01:27.026Z,16.30
2023-05-08T17:03:54.769Z,15.82
2023-05-08T17:06:22.453Z,15.95
2023-05-08T17:08:50.513Z,15.50
2023-05-08T17:11:18.150Z,15.67
2023-05-08T17:13:46.596Z,15.57
2023-05-08T17:16:14.587Z,15.33
2023-05-08T17:18:42.248Z,15.53
2023-05-08T17:21:10.371Z,15.41
2023-05-08T17:23:38.649Z,15.27
2023-05-08T17:26:06.340Z,15.14
2023-05-08T17:28:34.059Z,14.84
2023-05-08T17:31:01.953Z,14.82
2023-05-08T17:33:29.694Z,14.44
2023-05-08T17:35:57.378Z,14.55
2023-05-08T17:38:25.354Z,14.52
2023-05-08T17:40:58.215Z,14.12
2023-05-08T17:43:29.393Z,14.24
2023-05-08T17:45:57.603Z,13.98
2023-05-08T17:48:25.377Z,13.98
2023-05-08T17:50:54.650Z,13.94
2023-05-08T17:53:25.611Z,14.02
2023-05-08T17:55:53.608Z,13.93
2023-05-08T17:58:21.386Z,13.62
2023-05-08T18:00:49.300Z,13.81
2023-05-08T18:03:19.343Z,13.59
2023-05-08T18:05:47.251Z,13.51
2023-05-08T18:08:15.342Z,13.41
2023-05-08T18:10:43.841Z,13.30
2023-05-08T18:13:11.828Z,13.42
2023-05-08T18:15:40.462Z,13.16
2023-05-08T18:18:08.920Z,13.19
2023-05-08T18:20:36.789Z,12.99
2023-05-08T18:23:04.490Z,12.96
2023-05-08T18:25:32.490Z,12.77
2023-05-08T18:28:00.908Z,12.76
2023-05-08T18:30:28.735Z,12.75
2023-05-08T18:32:56.800Z,12.61
2023-05-08T18:35:24.672Z,12.74
2023-05-08T18:37:52.461Z,12.56
2023-05-08T18:40:20.928Z,12.61
2023-05-08T18:42:48.806Z,12.40
2023-05-08T18:45:16.642Z,12.25
2023-05-08T18:47:45.182Z,12.44
2023-05-08T18:50:14.898Z,12.22
2023-05-08T18:52:43.263Z,12.31
2023-05-08T18:55:11.223Z,12.11
2023-05-08T18:57:38.910Z,12.29
2023-05-08T19:00:07.278Z,11.96
2023-05-08T19:02:35.712Z,12.06
2023-05-08T19:05:04.204Z,11.76
2023-05-08T19:07:32.123Z,11.86
2023-05-08T19:10:00.170Z,11.81
2023-05-08T19:12:28.226Z,11.78
2023-05-08T19:14:55.906Z,11.79
2023-05-08T19:17:24.050Z,11.68
2023-05-08T19:19:52.912Z,11.76
2023-05-08T19:22:21.001Z,11.49
2023-05-08T19:24:49.130Z,11.45
2023-05-08T19:27:17.211Z,11.43
2023-05-08T19:29:45.624Z,11.43
2023-05-08T19:32:13.698Z,11.32
2023-05-08T19:34:41.588Z,11.28
2023-05-08T19:37:09.521Z,11.17
2023-05-08T19:39:37.745Z,11.03
2023-05-08T19:42:05.667Z,11.04
2023-05-08T19:44:33.342Z,10.96
2023-05-08T19:47:03.144Z,10.94
2023-05-08T19:49:31.662Z,11.18
2023-05-08T19:51:59.477Z,10.91
2023-05-08T19:54:28.957Z,10.88
2023-05-08T19:56:56.752Z,11.06
2023-05-08T19:59:24.874Z,10.65
2023-05-08T20:01:52.884Z,10.89
2023-05-08T20:04:21.006Z,10.82
2023-05-08T20:06:48.681Z,10.92
2023-05-08T20:09:16.317Z,10.79
2023-05-08T20:11:44.559Z,10.75
2023-05-08T20:14:12.596Z,10.93
2023-05-08T20:16:40.314Z,10.80
2023-05-08T20:19:08.317Z,10.67
2023-05-08T20:21:36.347Z,10.61
2023-05-08T20:24:04.128Z,10.66
2023-05-08T20:26:33.161Z,10.47
2023-05-08T20:29:00.788Z,10.39
2023-05-08T20:31:28.602Z,10.48
2023-05-08T20:33:56.790Z,10.40
2023-05-08T20:36:24.428Z,10.32
2023-05-08T20:38:52.351Z,10.48
2023-05-08T20:41:20.372Z,10.59
2023-05-08T20:43:48.061Z,10.47
2023-05-08T20:46:15.733Z,10.34
2023-05-08T20:48:43.884Z,10.56
2023-05-08T20:51:11.485Z,10.60
2023-05-08T20:53:39.223Z,10.34
2023-05-08T20:56:07.077Z,10.30
2023-05-08T20:58:34.838Z,10.51
2023-05-08T21:01:02.703Z,10.48
2023-05-08T21:03:30.746Z,10.52
2023-05-08T21:05:58.414Z,10.57
2023-05-08T21:08:26.024Z,10.40
2023-05-08T21:10:54.086Z,10.31
2023-05-08T21:13:21.680Z,10.35
2023-05-08T21:15:49.588Z,10.47
2023-05-08T21:18:17.932Z,10.50
2023-05-08T21:20:45.631Z,10.31
2023-05-08T21:23:13.203Z,10.40
2023-05-08T21:25:41.205Z,10.30
2023-05-08T21:28:08.876Z,10.29
2023-05-08T21:30:36.595Z,10.08
2023-05-08T21:33:04.549Z,9.98
2023-05-08T21:35:32.365Z,9.91
2023-05-08T21:38:00.042Z,10.05
2023-05-08T21:40:27.998Z,9.96
2023-05-08T21:42:55.662Z,10.03
2023-05-08T21:45:23.358Z,10.06
2023-05-08T21:47:51.450Z,9.82
2023-05-08T21:50:19.177Z,9.96
2023-05-08T21:52:47.020Z,9.98
2023-05-08T21:55:15.284Z,9.75
2023-05-08T21:57:43.268Z,9.41
2023-05-08T22:00:11.425Z,9.65
2023-05-08T22:02:47.164Z,9.76
2023-05-08T22:05:15.487Z,9.63
2023-05-08T22:07:43.502Z,9.66
2023-05-08T22:10:11.273Z,9.64
2023-05-08T22:12:39.397Z,9.53
2023-05-08T22:15:18.064Z,9.62
2023-05-08T22:17:54.048Z,9.34
2023-05-08T22:20:22.079Z,9.28
2023-05-08T22:22:49.784Z,9.18
2023-05-08T22:25:17.695Z,9.12
2023-05-08T22:27:46.159Z,9.17
2023-05-08T22:30:14.443Z,9.22
2023-05-08T22:32:42.405Z,8.97
2023-05-08T22:35:10.105Z,9.02
2023-05-08T22:37:37.710Z,8.83
2023-05-08T22:40:06.702Z,8.82
2023-05-08T22:42:34.389Z,8.83
2023-05-08T22:45:02.040Z,8.97
2023-05-08T22:47:30.328Z,8.91
2023-05-08T22:49:58.045Z,8.92
2023-05-08T22:52:25.704Z,8.91
2023-05-08T22:54:53.606Z,8.78
2023-05-08T22:57:21.939Z,8.74
2023-05-08T22:59:49.580Z,8.57
2023-05-08T23:02:17.538Z,8.69
2023-05-08T23:04:45.415Z,8.70
2023-05-08T23:07:13.233Z,8.81
2023-05-08T23:09:41.175Z,8.78
2023-05-08T23:12:08.744Z,8.70
2023-05-08T23:14:36.449Z,8.79
2023-05-08T23:17:04.537Z,8.59
2023-05-08T23:19:32.540Z,8.49
2023-05-08T23:22:00.173Z,8.51
2023-05-08T23:24:28.259Z,8.65
2023-05-08T23:26:55.837Z,8.65
2023-05-08T23:29:23.466Z,8.58
2023-05-08T23:31:51.502Z,8.42
2023-05-08T23:34:19.279Z,8.33
2023-05-08T23:36:47.131Z,8.40
2023-05-08T23:39:15.504Z,8.43
2023-05-08T23:41:43.113Z,8.66
2023-05-08T23:44:10.755Z,8.54
2023-05-08T23:46:38.885Z,8.56
2023-05-08T23:49:06.773Z,8.49
2023-05-08T23:51:34.387Z,8.57
2023-05-08T23:54:02.340Z,8.50
2023-05-08T23:56:30.275Z,8.56
2023-05-08T23:58:57.907Z,8.54
